createdAt,value
2018-07-22T00:00:11.159Z,76.39
2018-07-22T00:02:40.179Z,77.26
2018-07-22T00:05:08.883Z,77.14
2018-07-22T00:07:38.027Z,77.47
2018-07-22T00:10:08.983Z,77.52
2018-07-22T00:12:37.796Z,77.04
2018-07-22T00:15:06.471Z,76.06
2018-07-22T00:17:35.069Z,77.11
2018-07-22T00:20:03.765Z,77.16
2018-07-22T00:22:32.362Z,77.98
2018-07-22T00:25:00.963Z,77.73
2018-07-22T00:27:29.553Z,77.20
2018-07-22T00:29:58.117Z,77.22
2018-07-22T00:32:26.683Z,77.13
2018-07-22T00:34:55.447Z,77.77
2018-07-22T00:37:24.008Z,76.83
2018-07-22T00:39:52.544Z,77.19
2018-07-22T00:42:21.160Z,77.12
2018-07-22T00:44:49.708Z,76.94
2018-07-22T00:47:18.414Z,76.55
2018-07-22T00:49:47.144Z,76.98
2018-07-22T00:52:15.705Z,76.41
2018-07-22T00:54:44.262Z,76.77
2018-07-22T00:57:12.840Z,75.98
2018-07-22T00:59:41.376Z,77.08
2018-07-22T01:02:09.983Z,76.31
2018-07-22T01:04:38.951Z,75.55
2018-07-22T01:07:07.532Z,75.02
2018-07-22T01:09:36.130Z,74.03
2018-07-22T01:12:04.828Z,75.07
2018-07-22T01:14:33.412Z,74.04
2018-07-22T01:17:02.014Z,73.28
2018-07-22T01:19:30.627Z,73.11
2018-07-22T01:21:59.221Z,73.10
2018-07-22T01:24:27.755Z,73.07
2018-07-22T01:26:56.743Z,73.06
2018-07-22T01:29:25.284Z,72.43
2018-07-22T01:31:53.864Z,72.40
2018-07-22T01:34:22.775Z,72.40
2018-07-22T01:36:51.344Z,72.44
2018-07-22T01:39:19.899Z,72.54
2018-07-22T01:41:48.772Z,72.15
2018-07-22T01:44:17.304Z,72.22
2018-07-22T01:46:45.866Z,72.45
2018-07-22T01:49:15.088Z,71.47
2018-07-22T01:51:43.639Z,71.67
2018-07-22T01:54:12.203Z,71.65
2018-07-22T01:56:40.983Z,71.06
2018-07-22T01:59:09.555Z,71.00
2018-07-22T02:01:38.161Z,71.29
2018-07-22T02:04:07.019Z,71.07
2018-07-22T02:06:35.637Z,71.46
2018-07-22T02:09:05.091Z,71.43
2018-07-22T02:11:34.012Z,71.32
2018-07-22T02:14:02.539Z,71.85
2018-07-22T02:16:31.132Z,71.77
2018-07-22T02:18:59.715Z,71.18
2018-07-22T02:21:28.264Z,71.48
2018-07-22T02:23:56.839Z,71.11
2018-07-22T02:26:25.475Z,71.24
2018-07-22T02:28:54.025Z,71.39
2018-07-22T02:31:22.556Z,71.44
2018-07-22T02:33:51.292Z,71.29
2018-07-22T02:36:19.852Z,72.39
2018-07-22T02:38:48.395Z,73.14
2018-07-22T02:41:16.960Z,72.67
2018-07-22T02:43:45.492Z,72.15
2018-07-22T02:46:14.032Z,71.85
2018-07-22T02:48:42.766Z,72.41
2018-07-22T02:51:11.423Z,72.22
2018-07-22T02:53:39.978Z,72.09
2018-07-22T02:56:08.583Z,71.86
2018-07-22T02:58:37.125Z,71.83
2018-07-22T03:01:05.692Z,71.39
2018-07-22T03:03:34.581Z,70.97
2018-07-22T03:06:03.138Z,71.66
2018-07-22T03:08:31.959Z,72.15
2018-07-22T03:11:00.696Z,71.29
2018-07-22T03:13:29.236Z,71.73
2018-07-22T03:15:57.760Z,71.79
2018-07-22T03:18:26.329Z,72.97
2018-07-22T03:20:54.872Z,72.08
2018-07-22T03:23:23.418Z,71.55
2018-07-22T03:25:52.439Z,71.96
2018-07-22T03:28:20.979Z,73.14
2018-07-22T03:30:49.528Z,72.58
2018-07-22T03:33:18.127Z,73.68
2018-07-22T03:35:46.663Z,74.29
2018-07-22T03:38:15.207Z,75.27
2018-07-22T03:40:43.790Z,75.58
2018-07-22T03:43:12.501Z,76.08
2018-07-22T03:45:41.040Z,74.74
2018-07-22T03:48:09.741Z,74.45
2018-07-22T03:50:38.304Z,73.55
2018-07-22T03:53:06.901Z,73.16
2018-07-22T03:55:35.475Z,72.25
2018-07-22T03:58:04.047Z,72.96
2018-07-22T04:00:32.678Z,72.15
2018-07-22T04:03:01.256Z,72.67
2018-07-22T04:05:29.789Z,71.87
2018-07-22T04:07:58.324Z,71.47
2018-07-22T04:10:26.924Z,71.19
2018-07-22T04:12:55.451Z,71.33
2018-07-22T04:15:24.075Z,70.81
2018-07-22T04:17:52.679Z,70.86
2018-07-22T04:20:21.214Z,69.89
2018-07-22T04:22:49.748Z,70.82
2018-07-22T04:25:18.463Z,71.06
2018-07-22T04:27:47.012Z,71.22
2018-07-22T04:30:15.544Z,70.98
2018-07-22T04:32:44.135Z,70.77
2018-07-22T04:35:12.676Z,70.14
2018-07-22T04:37:41.300Z,70.66
2018-07-22T04:40:10.085Z,70.43
2018-07-22T04:42:38.731Z,69.73
2018-07-22T04:45:07.753Z,69.71
2018-07-22T04:47:36.449Z,69.39
2018-07-22T04:50:05.054Z,69.57
2018-07-22T04:52:33.928Z,68.62
2018-07-22T04:55:02.824Z,68.97
2018-07-22T04:57:31.368Z,67.95
2018-07-22T04:59:59.917Z,67.86
2018-07-22T05:02:28.572Z,67.39
2018-07-22T05:04:57.116Z,67.44
2018-07-22T05:07:25.664Z,66.44
2018-07-22T05:09:54.251Z,66.99
2018-07-22T05:12:22.839Z,65.83
2018-07-22T05:14:51.371Z,65.87
2018-07-22T05:17:20.367Z,66.03
2018-07-22T05:19:48.945Z,66.09
2018-07-22T05:22:17.500Z,65.21
2018-07-22T05:24:46.109Z,64.59
2018-07-22T05:27:14.692Z,64.29
2018-07-22T05:29:43.540Z,63.84
2018-07-22T05:32:12.216Z,63.88
2018-07-22T05:34:41.943Z,63.47
2018-07-22T05:37:10.567Z,63.47
2018-07-22T05:39:39.355Z,64.62
2018-07-22T05:42:08.395Z,64.83
2018-07-22T05:44:37.008Z,64.36
2018-07-22T05:47:06.287Z,63.08
2018-07-22T05:49:34.836Z,63.29
2018-07-22T05:52:03.434Z,62.71
2018-07-22T05:54:32.099Z,62.67
2018-07-22T05:57:00.644Z,61.45
2018-07-22T05:59:29.200Z,62.27
2018-07-22T06:01:58.125Z,62.22
2018-07-22T06:04:26.690Z,62.47
2018-07-22T06:06:55.760Z,62.31
2018-07-22T06:09:24.371Z,61.72
2018-07-22T06:11:53.012Z,60.90
2018-07-22T06:14:21.516Z,59.92
2018-07-22T06:16:50.228Z,60.81
2018-07-22T06:19:18.797Z,58.61
2018-07-22T06:21:47.345Z,58.53
2018-07-22T06:24:15.954Z,57.80
2018-07-22T06:26:44.512Z,57.44
2018-07-22T06:29:13.060Z,56.94
2018-07-22T06:31:41.681Z,56.65
2018-07-22T06:34:10.273Z,55.27
2018-07-22T06:36:38.816Z,55.14
2018-07-22T06:39:10.280Z,53.93
2018-07-22T06:41:38.907Z,52.82
2018-07-22T06:44:07.447Z,53.45
2018-07-22T06:46:36.081Z,51.74
2018-07-22T06:49:04.628Z,50.50
2018-07-22T06:51:33.239Z,49.71
2018-07-22T06:54:02.135Z,49.03
2018-07-22T06:56:30.748Z,49.08
2018-07-22T06:58:59.274Z,48.35
2018-07-22T07:01:27.983Z,49.42
2018-07-22T07:03:57.347Z,50.10
2018-07-22T07:06:26.215Z,50.28
2018-07-22T07:08:55.663Z,50.19
2018-07-22T07:11:26.024Z,49.82
2018-07-22T07:13:56.892Z,48.29
2018-07-22T07:16:26.020Z,47.75
2018-07-22T07:18:55.990Z,46.89
2018-07-22T07:21:26.018Z,45.76
2018-07-22T07:23:55.676Z,44.62
2018-07-22T07:26:25.360Z,43.05
2018-07-22T07:28:56.170Z,42.44
2018-07-22T07:31:26.402Z,42.02
2018-07-22T07:33:55.577Z,40.04
2018-07-22T07:36:25.400Z,40.95
2018-07-22T07:38:54.426Z,42.26
2018-07-22T07:41:24.940Z,43.31
2018-07-22T07:43:54.548Z,45.40
2018-07-22T07:46:23.660Z,45.34
2018-07-22T07:48:53.408Z,44.27
2018-07-22T07:51:24.284Z,45.93
2018-07-22T07:53:53.003Z,44.98
2018-07-22T07:56:23.801Z,44.15
2018-07-22T07:58:52.464Z,43.46
2018-07-22T08:01:23.119Z,41.82
2018-07-22T08:03:53.769Z,41.44
2018-07-22T08:06:24.227Z,42.08
2018-07-22T08:08:54.924Z,42.42
2018-07-22T08:11:24.205Z,42.11
2018-07-22T08:13:52.843Z,41.43
2018-07-22T08:16:23.549Z,42.12
2018-07-22T08:18:56.437Z,41.50
2018-07-22T08:21:23.501Z,39.62
2018-07-22T08:23:54.007Z,39.16
2018-07-22T08:26:22.963Z,36.23
2018-07-22T08:29:26.437Z,36.40
2018-07-22T08:31:55.236Z,35.71
2018-07-22T08:34:24.048Z,36.67
2018-07-22T08:36:52.601Z,36.87
2018-07-22T08:39:23.661Z,36.05
2018-07-22T08:41:52.910Z,34.95
2018-07-22T08:44:21.658Z,36.62
2018-07-22T08:46:51.364Z,35.93
2018-07-22T08:49:21.419Z,35.29
2018-07-22T08:51:52.174Z,35.95
2018-07-22T08:54:22.386Z,37.00
2018-07-22T08:56:52.750Z,37.62
2018-07-22T08:59:23.262Z,36.89
2018-07-22T09:01:53.545Z,36.80
2018-07-22T09:04:22.751Z,36.44
2018-07-22T09:06:52.394Z,36.72
2018-07-22T09:09:22.378Z,34.95
2018-07-22T09:11:52.247Z,36.36
2018-07-22T09:14:20.829Z,34.61
2018-07-22T09:16:49.764Z,32.88
2018-07-22T09:19:19.249Z,33.11
2018-07-22T09:21:47.794Z,33.73
2018-07-22T09:24:17.256Z,33.34
2018-07-22T09:26:45.801Z,32.14
2018-07-22T09:29:14.548Z,32.16
2018-07-22T09:31:43.288Z,31.47
2018-07-22T09:34:11.840Z,30.59
2018-07-22T09:36:40.425Z,28.87
2018-07-22T09:39:10.787Z,28.65
2018-07-22T09:41:39.534Z,27.36
2018-07-22T09:44:08.216Z,27.61
2018-07-22T09:46:36.889Z,27.15
2018-07-22T09:49:06.396Z,29.75
2018-07-22T09:51:34.952Z,31.61
2018-07-22T09:54:03.677Z,29.39
2018-07-22T09:56:32.239Z,29.12
2018-07-22T09:59:01.145Z,28.03
2018-07-22T10:01:30.802Z,27.45
2018-07-22T10:03:59.478Z,27.20
2018-07-22T10:06:28.140Z,26.87
2018-07-22T10:08:57.216Z,26.04
2018-07-22T10:11:25.768Z,25.27
2018-07-22T10:13:54.315Z,24.69
2018-07-22T10:16:27.027Z,24.40
2018-07-22T10:18:55.588Z,24.89
2018-07-22T10:21:24.246Z,24.54
2018-07-22T10:23:52.819Z,23.44
2018-07-22T10:26:21.520Z,22.84
2018-07-22T10:28:51.174Z,22.70
2018-07-22T10:31:19.844Z,21.62
2018-07-22T10:33:48.418Z,22.06
2018-07-22T10:36:18.060Z,21.81
2018-07-22T10:38:46.733Z,21.03
2018-07-22T10:41:15.268Z,21.24
2018-07-22T10:43:43.848Z,20.02
2018-07-22T10:46:12.641Z,19.55
2018-07-22T10:48:41.287Z,19.51
2018-07-22T10:51:10.360Z,20.18
2018-07-22T10:53:38.931Z,20.17
2018-07-22T10:56:09.825Z,20.19
2018-07-22T10:58:39.402Z,18.99
2018-07-22T11:01:07.955Z,18.52
2018-07-22T11:03:36.756Z,17.61
2018-07-22T11:06:05.395Z,17.03
2018-07-22T11:08:34.808Z,18.75
2018-07-22T11:11:03.475Z,20.97
2018-07-22T11:13:33.336Z,22.41
2018-07-22T11:16:02.060Z,24.29
2018-07-22T11:18:30.621Z,26.23
2018-07-22T11:20:59.441Z,26.47
2018-07-22T11:23:28.335Z,28.75
2018-07-22T11:25:56.910Z,30.92
2018-07-22T11:28:25.838Z,30.81
2018-07-22T11:30:55.411Z,31.59
2018-07-22T11:33:25.390Z,31.03
2018-07-22T11:35:54.586Z,31.15
2018-07-22T11:38:23.927Z,28.63
2018-07-22T11:40:53.379Z,28.68
2018-07-22T11:43:25.048Z,29.46
2018-07-22T11:45:55.948Z,30.93
2018-07-22T11:48:24.517Z,32.62
2018-07-22T11:50:53.074Z,33.42
2018-07-22T11:53:21.703Z,33.48
2018-07-22T11:55:50.263Z,33.04
2018-07-22T11:58:18.813Z,29.19
2018-07-22T12:00:49.256Z,27.00
2018-07-22T12:03:19.555Z,27.55
2018-07-22T12:05:50.192Z,27.99
2018-07-22T12:08:19.357Z,29.69
2018-07-22T12:10:47.936Z,29.73
2018-07-22T12:13:16.520Z,28.88
2018-07-22T12:15:45.068Z,26.51
2018-07-22T12:18:13.624Z,26.50
2018-07-22T12:20:42.616Z,27.96
2018-07-22T12:23:12.857Z,29.25
2018-07-22T12:25:41.632Z,28.82
2018-07-22T12:28:10.432Z,27.09
2018-07-22T12:30:39.216Z,24.48
2018-07-22T12:33:07.768Z,23.57
2018-07-22T12:35:37.074Z,22.31
2018-07-22T12:38:05.768Z,24.18
2018-07-22T12:40:34.319Z,26.07
2018-07-22T12:43:02.940Z,28.41
2018-07-22T12:45:31.812Z,29.39
2018-07-22T12:48:00.375Z,26.92
2018-07-22T12:50:29.152Z,24.16
2018-07-22T12:52:57.828Z,25.27
2018-07-22T12:55:31.091Z,26.42
2018-07-22T12:57:59.656Z,28.62
2018-07-22T13:00:29.176Z,29.78
2018-07-22T13:02:58.392Z,29.38
2018-07-22T13:05:29.402Z,31.48
2018-07-22T13:07:58.000Z,32.37
2018-07-22T13:10:26.608Z,32.19
2018-07-22T13:12:55.227Z,31.77
2018-07-22T13:15:25.084Z,30.74
2018-07-22T13:17:54.686Z,27.64
2018-07-22T13:20:23.434Z,29.36
2018-07-22T13:22:52.268Z,31.01
2018-07-22T13:25:21.133Z,35.73
2018-07-22T13:27:50.235Z,39.45
2018-07-22T13:30:18.901Z,43.61
2018-07-22T13:32:48.216Z,42.38
2018-07-22T13:35:16.856Z,36.84
2018-07-22T13:37:45.482Z,36.00
2018-07-22T13:40:14.276Z,37.05
2018-07-22T13:42:42.820Z,37.14
2018-07-22T13:45:11.626Z,37.40
2018-07-22T13:47:40.172Z,40.46
2018-07-22T13:50:08.836Z,41.21
2018-07-22T13:52:37.895Z,42.55
2018-07-22T13:55:06.473Z,45.82
2018-07-22T13:57:35.040Z,45.48
2018-07-22T14:00:03.776Z,45.81
2018-07-22T14:02:32.495Z,46.97
2018-07-22T14:05:02.253Z,47.57
2018-07-22T14:07:31.005Z,48.40
2018-07-22T14:09:59.844Z,49.51
2018-07-22T14:12:28.485Z,50.23
2018-07-22T14:14:57.467Z,51.48
2018-07-22T14:17:26.017Z,53.08
2018-07-22T14:19:54.725Z,53.07
2018-07-22T14:22:23.680Z,55.98
2018-07-22T14:24:52.224Z,56.81
2018-07-22T14:27:20.791Z,57.03
2018-07-22T14:29:49.704Z,58.42
2018-07-22T14:32:18.364Z,57.66
2018-07-22T14:34:47.036Z,60.95
2018-07-22T14:37:15.715Z,61.24
2018-07-22T14:39:44.607Z,62.18
2018-07-22T14:42:13.151Z,62.49
2018-07-22T14:44:42.402Z,62.19
2018-07-22T14:47:11.345Z,61.33
2018-07-22T14:49:39.797Z,61.74
2018-07-22T14:52:08.645Z,62.03
2018-07-22T14:54:37.220Z,59.76
2018-07-22T14:57:05.788Z,62.15
2018-07-22T14:59:34.852Z,60.33
2018-07-22T15:02:03.435Z,59.72
2018-07-22T15:04:31.990Z,61.87
2018-07-22T15:07:00.904Z,60.80
2018-07-22T15:09:29.451Z,60.87
2018-07-22T15:11:59.243Z,62.25
2018-07-22T15:14:29.244Z,63.21
2018-07-22T15:16:58.439Z,64.12
2018-07-22T15:19:27.001Z,64.56
2018-07-22T15:21:55.709Z,65.05
2018-07-22T15:24:24.523Z,66.67
2018-07-22T15:26:53.359Z,65.94
2018-07-22T15:29:22.164Z,65.08
2018-07-22T15:31:51.074Z,66.05
2018-07-22T15:34:19.764Z,66.15
2018-07-22T15:36:48.515Z,67.31
2018-07-22T15:39:17.064Z,67.25
2018-07-22T15:41:46.133Z,68.01
2018-07-22T15:44:14.988Z,67.65
2018-07-22T15:46:43.547Z,68.16
2018-07-22T15:49:12.155Z,68.35
2018-07-22T15:51:41.046Z,69.03
2018-07-22T15:54:09.711Z,69.58
2018-07-22T15:56:38.540Z,68.15
2018-07-22T15:59:07.248Z,68.35
2018-07-22T16:01:38.416Z,67.38
2018-07-22T16:04:07.236Z,67.50
2018-07-22T16:06:36.565Z,66.89
2018-07-22T16:09:08.155Z,67.28
2018-07-22T16:11:37.772Z,66.84
2018-07-22T16:14:08.250Z,67.36
2018-07-22T16:16:37.631Z,66.51
2018-07-22T16:19:06.728Z,65.63
2018-07-22T16:21:36.352Z,64.80
2018-07-22T16:24:05.427Z,65.02
2018-07-22T16:26:34.356Z,65.41
2018-07-22T16:29:03.394Z,65.91
2018-07-22T16:31:32.031Z,66.26
2018-07-22T16:34:00.596Z,65.52
2018-07-22T16:36:30.350Z,66.50
2018-07-22T16:38:59.608Z,66.32
2018-07-22T16:41:28.513Z,67.41
2018-07-22T16:43:58.288Z,66.66
2018-07-22T16:46:27.557Z,65.00
2018-07-22T16:49:01.532Z,65.34
2018-07-22T16:51:32.416Z,65.05
2018-07-22T16:54:01.012Z,66.21
2018-07-22T16:56:30.832Z,66.79
2018-07-22T16:59:00.451Z,66.75
2018-07-22T17:01:30.495Z,66.99
2018-07-22T17:03:59.725Z,66.71
2018-07-22T17:06:29.456Z,66.61
2018-07-22T17:09:00.060Z,67.57
2018-07-22T17:11:30.276Z,67.47
2018-07-22T17:13:59.990Z,67.54
2018-07-22T17:16:31.443Z,69.57
2018-07-22T17:19:02.135Z,68.57
2018-07-22T17:21:31.431Z,69.05
2018-07-22T17:24:01.907Z,69.63
2018-07-22T17:26:31.432Z,70.17
2018-07-22T17:29:00.849Z,69.76
2018-07-22T17:31:29.518Z,70.97
2018-07-22T17:33:58.304Z,70.88
2018-07-22T17:36:26.843Z,72.88
2018-07-22T17:38:55.399Z,70.90
2018-07-22T17:41:24.024Z,69.83
2018-07-22T17:43:54.732Z,69.62
2018-07-22T17:46:23.813Z,69.27
2018-07-22T17:48:52.962Z,68.75
2018-07-22T17:51:23.015Z,68.71
2018-07-22T17:53:51.620Z,69.27
2018-07-22T17:56:20.537Z,69.71
2018-07-22T17:58:49.211Z,68.99
2018-07-22T18:01:18.089Z,69.35
2018-07-22T18:03:49.007Z,69.52
2018-07-22T18:06:18.208Z,68.92
2018-07-22T18:08:47.360Z,70.31
2018-07-22T18:11:15.949Z,69.82
2018-07-22T18:13:45.024Z,70.66
2018-07-22T18:16:13.563Z,70.38
2018-07-22T18:18:42.519Z,69.94
2018-07-22T18:21:11.157Z,70.16
2018-07-22T18:23:39.736Z,70.52
2018-07-22T18:26:08.700Z,70.79
2018-07-22T18:28:37.489Z,70.28
2018-07-22T18:31:06.128Z,70.67
2018-07-22T18:33:34.931Z,70.44
2018-07-22T18:36:03.528Z,70.40
2018-07-22T18:38:32.324Z,69.47
2018-07-22T18:41:00.980Z,69.00
2018-07-22T18:43:29.580Z,69.42
2018-07-22T18:45:58.179Z,70.15
2018-07-22T18:48:26.816Z,69.65
2018-07-22T18:50:55.528Z,68.34
2018-07-22T18:53:24.306Z,68.16
2018-07-22T18:55:52.860Z,67.37
2018-07-22T18:58:21.605Z,67.86
2018-07-22T19:00:50.147Z,67.45
2018-07-22T19:03:18.837Z,67.03
2018-07-22T19:05:47.467Z,67.14
2018-07-22T19:08:16.105Z,67.18
2018-07-22T19:10:44.673Z,66.66
2018-07-22T19:13:13.488Z,66.99
2018-07-22T19:15:42.047Z,68.97
2018-07-22T19:18:10.595Z,69.01
2018-07-22T19:20:39.556Z,67.87
2018-07-22T19:23:08.240Z,67.83
2018-07-22T19:25:36.879Z,68.62
2018-07-22T19:28:05.752Z,69.98
2018-07-22T19:30:34.957Z,69.28
2018-07-22T19:33:03.618Z,69.78
2018-07-22T19:35:32.389Z,69.59
2018-07-22T19:38:01.008Z,70.62
2018-07-22T19:40:29.637Z,70.40
2018-07-22T19:42:58.188Z,70.05
2018-07-22T19:45:26.784Z,70.63
2018-07-22T19:47:55.671Z,70.16
2018-07-22T19:50:24.557Z,69.93
2018-07-22T19:52:53.108Z,69.64
2018-07-22T19:55:21.740Z,69.72
2018-07-22T19:57:50.321Z,69.99
2018-07-22T20:00:18.874Z,69.97
2018-07-22T20:02:47.428Z,69.36
2018-07-22T20:05:16.352Z,69.30
2018-07-22T20:07:45.090Z,69.61
2018-07-22T20:10:14.114Z,70.78
2018-07-22T20:12:43.101Z,70.60
2018-07-22T20:15:11.642Z,71.19
2018-07-22T20:17:40.546Z,71.50
2018-07-22T20:20:11.068Z,71.30
2018-07-22T20:22:46.076Z,71.91
2018-07-22T20:25:14.828Z,70.95
2018-07-22T20:27:44.025Z,70.71
2018-07-22T20:30:12.627Z,72.20
2018-07-22T20:32:41.208Z,73.79
2018-07-22T20:35:09.803Z,72.58
2018-07-22T20:37:38.396Z,74.77
2018-07-22T20:40:07.338Z,73.89
2018-07-22T20:42:35.896Z,74.31
2018-07-22T20:45:04.827Z,75.32
2018-07-22T20:47:34.369Z,75.43
2018-07-22T20:50:02.937Z,74.32
2018-07-22T20:52:31.617Z,75.53
2018-07-22T20:55:01.391Z,75.72
2018-07-22T20:57:30.632Z,73.61
2018-07-22T20:59:59.216Z,74.11
2018-07-22T21:02:27.863Z,74.64
2018-07-22T21:04:56.736Z,74.89
2018-07-22T21:07:25.296Z,75.44
2018-07-22T21:09:54.036Z,74.93
2018-07-22T21:12:44.439Z,74.16
2018-07-22T21:15:13.517Z,73.58
2018-07-22T21:17:42.288Z,73.98
2018-07-22T21:20:11.370Z,73.98
2018-07-22T21:22:40.192Z,73.91
2018-07-22T21:25:08.774Z,74.44
2018-07-22T21:27:37.608Z,74.07
2018-07-22T21:30:07.131Z,73.27
2018-07-22T21:32:35.656Z,73.48
2018-07-22T21:35:04.496Z,73.41
2018-07-22T21:37:33.248Z,73.25
2018-07-22T21:40:02.055Z,72.95
2018-07-22T21:42:31.390Z,72.54
2018-07-22T21:44:59.992Z,72.23
2018-07-22T21:47:28.585Z,71.99
2018-07-22T21:49:57.176Z,71.50
2018-07-22T21:52:25.912Z,71.66
2018-07-22T21:54:54.650Z,71.68
2018-07-22T21:57:23.325Z,71.96
2018-07-22T21:59:52.233Z,71.44
2018-07-22T22:02:20.883Z,71.57
2018-07-22T22:04:49.454Z,72.07
2018-07-22T22:07:18.074Z,72.67
2018-07-22T22:09:46.591Z,72.72
2018-07-22T22:12:15.144Z,73.39
2018-07-22T22:14:43.715Z,74.52
2018-07-22T22:17:12.285Z,76.23
2018-07-22T22:19:40.836Z,75.79
2018-07-22T22:22:09.460Z,76.44
2018-07-22T22:24:38.105Z,75.00
2018-07-22T22:27:06.719Z,74.51
2018-07-22T22:29:36.668Z,72.57
2018-07-22T22:32:06.779Z,73.34
2018-07-22T22:34:36.186Z,74.34
2018-07-22T22:37:05.296Z,73.77
2018-07-22T22:39:34.392Z,74.88
2018-07-22T22:42:03.661Z,74.82
2018-07-22T22:44:32.825Z,74.53
2018-07-22T22:47:01.516Z,73.18
2018-07-22T22:49:30.113Z,73.11
2018-07-22T22:51:58.656Z,73.28
2018-07-22T22:54:27.397Z,73.14
2018-07-22T22:56:56.234Z,73.00
2018-07-22T22:59:24.937Z,72.95
2018-07-22T23:01:53.619Z,72.81
2018-07-22T23:04:22.225Z,72.09
2018-07-22T23:06:50.890Z,72.37
2018-07-22T23:09:19.678Z,72.31
2018-07-22T23:11:48.310Z,72.60
2018-07-22T23:14:17.600Z,71.96
2018-07-22T23:16:46.221Z,72.12
2018-07-22T23:19:14.846Z,72.54
2018-07-22T23:21:43.481Z,71.98
2018-07-22T23:24:12.714Z,71.79
2018-07-22T23:26:41.707Z,72.14
2018-07-22T23:29:10.644Z,71.79
2018-07-22T23:31:40.227Z,71.99
2018-07-22T23:34:09.872Z,71.61
2018-07-22T23:36:38.604Z,72.04
2018-07-22T23:39:08.675Z,72.79
2018-07-22T23:41:37.511Z,72.62
2018-07-22T23:44:06.480Z,72.14
2018-07-22T23:46:35.189Z,72.08
2018-07-22T23:49:04.599Z,72.09
2018-07-22T23:51:33.181Z,72.57
2018-07-22T23:54:01.753Z,72.01
2018-07-22T23:56:30.356Z,71.31
2018-07-22T23:58:59.052Z,71.26
